<?xml version="1.0" encoding="UTF-8" standalone="no" ?>
<gpx xmlns="http://www.topografix.com/GPX/1/1" xmlns:xsi="http://www.w3.org/2001/XMLSchema-instance" xsi:schemaLocation="http://www.topografix.com/GPX/1/1 http://www.topografix.com/GPX/1/1/gpx.xsd" version="1.1" creator="VisuGPX - https://www.visugpx.com">
  <metadata>
    <name>MP2025 10km</name>
  </metadata>
  <wpt lat="47.61457" lon="7.21015">
    <ele>301</ele>
    <name><![CDATA[Point de passage 1]]></name>
    <type><![CDATA[GENERIC]]></type>
  </wpt>
  <wpt lat="47.61456" lon="7.21035">
    <ele>301</ele>
    <name><![CDATA[Point de passage 2]]></name>
    <type><![CDATA[GENERIC]]></type>
  </wpt>
  <trk>
    <name><![CDATA[MP2025 10km]]></name>
    <trkseg>
      <trkpt lat="47.61457" lon="7.21015">
        <ele>301</ele>
        <time>2025-04-25T20:52:18.000Z</time>
      </trkpt>
      <trkpt lat="47.61428" lon="7.21">
        <ele>301</ele>
        <time>2025-04-25T20:52:53.000Z</time>
      </trkpt>
      <trkpt lat="47.61416" lon="7.21073">
        <ele>299</ele>
        <time>2025-04-25T20:53:51.000Z</time>
      </trkpt>
      <trkpt lat="47.61324" lon="7.21005">
        <ele>302</ele>
        <time>2025-04-25T20:56:20.000Z</time>
      </trkpt>
      <trkpt lat="47.61324" lon="7.20975">
        <ele>303</ele>
        <time>2025-04-25T20:56:53.000Z</time>
      </trkpt>
      <trkpt lat="47.61163" lon="7.20876">
        <ele>304</ele>
        <time>2025-04-25T21:00:22.000Z</time>
      </trkpt>
      <trkpt lat="47.61108" lon="7.20595">
        <ele>311</ele>
        <time>2025-04-25T21:05:20.000Z</time>
      </trkpt>
      <trkpt lat="47.61029" lon="7.20307">
        <ele>315</ele>
        <time>2025-04-25T21:10:01.000Z</time>
      </trkpt>
      <trkpt lat="47.60901" lon="7.20082">
        <ele>318</ele>
        <time>2025-04-25T21:14:19.000Z</time>
      </trkpt>
      <trkpt lat="47.60744" lon="7.19863">
        <ele>323</ele>
        <time>2025-04-25T21:19:18.000Z</time>
      </trkpt>
      <trkpt lat="47.60519" lon="7.19642">
        <ele>334</ele>
        <time>2025-04-25T21:26:19.000Z</time>
      </trkpt>
      <trkpt lat="47.60375" lon="7.19131">
        <ele>363</ele>
        <time>2025-04-25T21:38:26.000Z</time>
      </trkpt>
      <trkpt lat="47.60263" lon="7.18687">
        <ele>377</ele>
        <time>2025-04-25T21:46:55.000Z</time>
      </trkpt>
      <trkpt lat="47.60166" lon="7.18047">
        <ele>383</ele>
        <time>2025-04-25T21:56:23.000Z</time>
      </trkpt>
      <trkpt lat="47.60337" lon="7.17963">
        <ele>378</ele>
        <time>2025-04-25T21:59:49.000Z</time>
      </trkpt>
      <trkpt lat="47.60208" lon="7.17882">
        <ele>372</ele>
        <time>2025-04-25T22:02:29.000Z</time>
      </trkpt>
      <trkpt lat="47.60136" lon="7.17784">
        <ele>361</ele>
        <time>2025-04-25T22:04:21.000Z</time>
      </trkpt>
      <trkpt lat="47.60026" lon="7.17758">
        <ele>343</ele>
        <time>2025-04-25T22:06:28.000Z</time>
      </trkpt>
      <trkpt lat="47.59771" lon="7.17964">
        <ele>350</ele>
        <time>2025-04-25T22:13:13.000Z</time>
      </trkpt>
      <trkpt lat="47.59732" lon="7.1786">
        <ele>345</ele>
        <time>2025-04-25T22:14:45.000Z</time>
      </trkpt>
      <trkpt lat="47.59747" lon="7.17782">
        <ele>348</ele>
        <time>2025-04-25T22:16:18.000Z</time>
      </trkpt>
      <trkpt lat="47.59962" lon="7.1753">
        <ele>348</ele>
        <time>2025-04-25T22:21:31.000Z</time>
      </trkpt>
      <trkpt lat="47.60205" lon="7.1737">
        <ele>344</ele>
        <time>2025-04-25T22:26:36.000Z</time>
      </trkpt>
      <trkpt lat="47.60473" lon="7.17298">
        <ele>336</ele>
        <time>2025-04-25T22:31:49.000Z</time>
      </trkpt>
      <trkpt lat="47.6086" lon="7.17296">
        <ele>326</ele>
        <time>2025-04-25T22:39:12.000Z</time>
      </trkpt>
      <trkpt lat="47.60959" lon="7.17361">
        <ele>325</ele>
        <time>2025-04-25T22:41:16.000Z</time>
      </trkpt>
      <trkpt lat="47.61035" lon="7.17479">
        <ele>324</ele>
        <time>2025-04-25T22:43:22.000Z</time>
      </trkpt>
      <trkpt lat="47.61013" lon="7.17321">
        <ele>326</ele>
        <time>2025-04-25T22:45:47.000Z</time>
      </trkpt>
      <trkpt lat="47.61019" lon="7.172">
        <ele>328</ele>
        <time>2025-04-25T22:47:41.000Z</time>
      </trkpt>
      <trkpt lat="47.61317" lon="7.17138">
        <ele>330</ele>
        <time>2025-04-25T22:53:46.000Z</time>
      </trkpt>
      <trkpt lat="47.61851" lon="7.18258">
        <ele>331</ele>
        <time>2025-04-25T23:11:35.000Z</time>
      </trkpt>
      <trkpt lat="47.61654" lon="7.18451">
        <ele>315</ele>
        <time>2025-04-25T23:16:05.000Z</time>
      </trkpt>
      <trkpt lat="47.61504" lon="7.18507">
        <ele>315</ele>
        <time>2025-04-25T23:19:03.000Z</time>
      </trkpt>
      <trkpt lat="47.61602" lon="7.19099">
        <ele>316</ele>
        <time>2025-04-25T23:27:04.000Z</time>
      </trkpt>
      <trkpt lat="47.61573" lon="7.19468">
        <ele>310</ele>
        <time>2025-04-25T23:31:51.000Z</time>
      </trkpt>
      <trkpt lat="47.61504" lon="7.19751">
        <ele>309</ele>
        <time>2025-04-25T23:35:44.000Z</time>
      </trkpt>
      <trkpt lat="47.615" lon="7.19951">
        <ele>309</ele>
        <time>2025-04-25T23:38:18.000Z</time>
      </trkpt>
      <trkpt lat="47.6144" lon="7.20273">
        <ele>307</ele>
        <time>2025-04-25T23:42:36.000Z</time>
      </trkpt>
      <trkpt lat="47.61463" lon="7.20493">
        <ele>306</ele>
        <time>2025-04-25T23:45:28.000Z</time>
      </trkpt>
      <trkpt lat="47.61439" lon="7.20824">
        <ele>302</ele>
        <time>2025-04-25T23:49:46.000Z</time>
      </trkpt>
      <trkpt lat="47.61421" lon="7.21019">
        <ele>300</ele>
        <time>2025-04-25T23:52:18.000Z</time>
      </trkpt>
      <trkpt lat="47.61456" lon="7.21035">
        <ele>301</ele>
        <time>2025-04-25T23:53:10.000Z</time>
      </trkpt>
    </trkseg>
  </trk>
</gpx>